Time;durP1;ratioP1;P1;durP2;ratioP2;P2;SDS_P1;SDS_P2;PMS_P1;PMS_P2;Temp;Humidity;BMP_temperature;BMP_pressure;BME280_temperature;BME280_humidity;BME280_pressure;Samples;Min_cycle;Max_cycle;Signal;HPM_P1;HPM_P2
2022/03/05 00:00:08;;;;;;;13.30;6.73;;;-1.40;41.30;;;;;;5026627;28;46746;-62
2022/03/05 00:02:34;;;;;;;13.98;6.90;;;-1.50;42.20;;;;;;5025719;28;46394;-63
2022/03/05 00:04:59;;;;;;;17.77;7.40;;;-1.50;42.70;;;;;;5027401;28;46516;-63
2022/03/05 00:07:25;;;;;;;15.13;7.97;;;-1.50;42.70;;;;;;5024214;28;45865;-65
2022/03/05 00:09:51;;;;;;;12.50;6.83;;;-1.50;42.80;;;;;;5030990;28;47197;-63
2022/03/05 00:12:16;;;;;;;13.80;6.43;;;-1.60;42.70;;;;;;5025572;28;46410;-63
2022/03/05 00:14:42;;;;;;;13.57;7.30;;;-1.60;42.70;;;;;;5025058;28;46632;-63
2022/03/05 00:17:08;;;;;;;17.20;6.80;;;-1.60;42.70;;;;;;5026120;28;46511;-62
2022/03/05 00:19:33;;;;;;;15.53;7.07;;;-1.60;42.60;;;;;;5026812;28;46478;-62
2022/03/05 00:22:01;;;;;;;16.87;7.37;;;-1.70;42.60;;;;;;5029993;28;45822;-62
2022/03/05 00:24:27;;;;;;;14.82;7.40;;;-1.70;42.60;;;;;;5030057;28;46462;-61
2022/03/05 00:26:53;;;;;;;14.02;7.28;;;-1.80;42.50;;;;;;5030949;28;46540;-62
2022/03/05 00:29:19;;;;;;;15.20;7.23;;;-1.80;42.50;;;;;;5030516;28;46569;-63
2022/03/05 00:31:45;;;;;;;16.07;6.90;;;-1.90;42.40;;;;;;5032884;28;46421;-63
2022/03/05 00:34:11;;;;;;;14.05;7.97;;;-1.90;42.40;;;;;;5032122;28;46401;-61
2022/03/05 00:36:38;;;;;;;14.45;7.68;;;-2.00;42.30;;;;;;5032994;28;46361;-63
2022/03/05 00:39:04;;;;;;;15.07;7.10;;;-2.00;42.30;;;;;;5034633;28;46366;-63
2022/03/05 00:41:30;;;;;;;13.82;6.32;;;-2.00;42.30;;;;;;5032254;28;46453;-63
2022/03/05 00:43:55;;;;;;;15.50;6.77;;;-2.10;42.60;;;;;;5030231;28;46453;-62
2022/03/05 00:46:21;;;;;;;16.60;7.97;;;-2.10;42.20;;;;;;5030623;28;46370;-63
2022/03/05 00:48:47;;;;;;;23.03;8.17;;;-2.10;42.20;;;;;;5034610;28;47272;-63
2022/03/05 00:51:12;;;;;;;21.13;7.40;;;-2.10;42.20;;;;;;5028346;28;46414;-62
2022/03/05 00:53:38;;;;;;;19.63;7.07;;;-2.10;42.20;;;;;;5030921;28;45969;-62
2022/03/05 00:56:04;;;;;;;12.77;6.20;;;-2.20;42.10;;;;;;5028363;28;46632;-63
2022/03/05 00:58:30;;;;;;;14.35;7.45;;;-2.20;42.20;;;;;;5028552;28;46955;-62
2022/03/05 01:00:56;;;;;;;15.38;7.32;;;-2.20;42.20;;;;;;5027435;28;46517;-62
2022/03/05 01:03:22;;;;;;;16.27;7.17;;;-2.20;42.20;;;;;;5026138;28;46573;-64
2022/03/05 01:05:48;;;;;;;17.88;7.65;;;-2.30;42.10;;;;;;5029435;28;46518;-63
2022/03/05 01:08:13;;;;;;;13.67;6.47;;;-2.30;42.10;;;;;;5032469;28;46457;-62
2022/03/05 01:10:39;;;;;;;19.90;9.03;;;-2.30;42.20;;;;;;5028835;28;46480;-63
2022/03/05 01:13:04;;;;;;;19.70;8.03;;;-2.30;42.70;;;;;;5029672;28;46497;-63
2022/03/05 01:15:30;;;;;;;12.90;7.03;;;-2.30;42.90;;;;;;5029794;28;46510;-63
2022/03/05 01:17:56;;;;;;;12.73;6.53;;;-2.40;43.20;;;;;;5032890;28;47883;-64
2022/03/05 01:20:21;;;;;;;18.47;7.43;;;-2.40;43.40;;;;;;5034096;28;46466;-64
2022/03/05 01:22:47;;;;;;;14.07;6.70;;;-2.40;43.50;;;;;;5032646;28;46411;-62
2022/03/05 01:25:13;;;;;;;15.93;7.40;;;-2.50;43.40;;;;;;5035314;28;46672;-62
2022/03/05 01:27:38;;;;;;;14.83;6.97;;;-2.50;43.40;;;;;;5036608;28;46436;-63
2022/03/05 01:30:04;;;;;;;17.00;7.53;;;-2.50;43.50;;;;;;5029919;28;46379;-63
2022/03/05 01:32:31;;;;;;;15.50;7.72;;;-2.50;43.60;;;;;;5026794;28;45804;-64
2022/03/05 01:34:57;;;;;;;17.63;7.73;;;-2.60;43.30;;;;;;5032101;28;46480;-62
2022/03/05 01:37:22;;;;;;;16.77;7.30;;;-2.60;43.30;;;;;;5031314;28;46424;-64
2022/03/05 01:39:48;;;;;;;16.80;8.47;;;-2.70;43.30;;;;;;5033801;28;46412;-63
2022/03/05 01:42:17;;;;;;;19.73;8.40;;;-2.70;43.50;;;;;;5031449;28;46475;-63
2022/03/05 01:44:43;;;;;;;15.68;8.43;;;-2.70;43.60;;;;;;5035535;28;46364;-63
2022/03/05 01:47:08;;;;;;;15.30;9.10;;;-2.70;43.70;;;;;;5031754;28;46361;-63
2022/03/05 01:49:34;;;;;;;17.93;7.10;;;-2.80;43.70;;;;;;5033741;28;46323;-63
2022/03/05 01:52:00;;;;;;;15.97;7.57;;;-2.80;43.70;;;;;;5029143;28;46327;-62
2022/03/05 01:54:26;;;;;;;19.47;9.03;;;-2.80;43.50;;;;;;5029213;28;46327;-61
2022/03/05 01:56:51;;;;;;;13.73;7.70;;;-2.70;43.80;;;;;;5027139;28;46374;-62
2022/03/05 01:59:17;;;;;;;13.60;7.80;;;-2.80;44.00;;;;;;5025228;28;46342;-62
2022/03/05 02:01:43;;;;;;;16.43;8.03;;;-2.90;44.20;;;;;;5029649;28;46358;-64
2022/03/05 02:04:09;;;;;;;16.73;8.70;;;-2.90;44.40;;;;;;5040051;28;46477;-62
2022/03/05 02:06:35;;;;;;;24.67;8.60;;;-2.90;44.30;;;;;;5038040;28;46499;-63
2022/03/05 02:09:01;;;;;;;17.97;8.13;;;-2.90;44.30;;;;;;5035915;28;46458;-63
2022/03/05 02:11:27;;;;;;;17.65;8.48;;;-2.90;44.30;;;;;;5034289;28;46440;-63
2022/03/05 02:13:53;;;;;;;17.02;8.55;;;-3.00;44.00;;;;;;5033229;28;46560;-64
2022/03/05 02:16:20;;;;;;;15.18;7.63;;;-3.00;44.20;;;;;;5028821;28;46788;-63
2022/03/05 02:18:48;;;;;;;15.38;6.68;;;-3.00;44.10;;;;;;5033871;28;46371;-63
2022/03/05 02:21:15;;;;;;;16.65;8.13;;;-3.00;44.10;;;;;;5030411;28;46410;-61
2022/03/05 02:23:40;;;;;;;18.58;7.75;;;-3.00;44.10;;;;;;5026681;28;46331;-64
2022/03/05 02:26:07;;;;;;;19.37;8.40;;;-3.00;44.10;;;;;;5029091;28;46614;-63
2022/03/05 02:28:34;;;;;;;15.05;7.80;;;-3.00;44.20;;;;;;5026907;28;46019;-64
2022/03/05 02:31:00;;;;;;;17.23;8.73;;;-3.00;44.10;;;;;;5036757;28;46656;-64
2022/03/05 02:33:26;;;;;;;19.65;8.40;;;-3.00;44.20;;;;;;5035387;28;46501;-64
2022/03/05 02:35:51;;;;;;;14.30;7.07;;;-3.00;44.30;;;;;;5034284;28;46354;-63
2022/03/05 02:38:20;;;;;;;18.07;8.20;;;-3.00;44.30;;;;;;5029824;28;46344;-64
2022/03/05 02:40:46;;;;;;;15.10;7.90;;;-3.00;44.40;;;;;;5030781;28;46385;-64
2022/03/05 02:43:12;;;;;;;20.10;7.65;;;-3.00;44.60;;;;;;5035235;28;46484;-63
2022/03/05 02:45:39;;;;;;;23.90;8.35;;;-3.00;44.90;;;;;;5031045;28;46494;-64
2022/03/05 02:48:09;;;;;;;17.70;8.02;;;-3.00;44.90;;;;;;5030809;28;46535;-64
2022/03/05 02:50:35;;;;;;;16.50;8.18;;;-3.00;45.00;;;;;;5031112;28;46327;-62
2022/03/05 02:53:01;;;;;;;22.47;8.97;;;-3.00;45.60;;;;;;5034678;28;46468;-63
2022/03/05 02:55:26;;;;;;;16.17;8.38;;;-3.00;46.40;;;;;;5029774;28;47498;-63
2022/03/05 02:57:52;;;;;;;20.63;8.07;;;-3.00;45.50;;;;;;5029838;28;46312;-64
2022/03/05 03:00:19;;;;;;;18.50;8.57;;;-3.00;45.70;;;;;;5027885;28;46217;-64
2022/03/05 03:02:45;;;;;;;15.35;8.40;;;-3.00;45.60;;;;;;5029913;28;46476;-63
2022/03/05 03:05:12;;;;;;;18.95;8.95;;;-3.00;45.60;;;;;;5032556;28;46405;-64
2022/03/05 03:07:37;;;;;;;15.05;8.23;;;-3.00;45.60;;;;;;5028664;28;46311;-64
2022/03/05 03:10:07;;;;;;;15.80;7.50;;;-3.00;45.50;;;;;;5027951;28;46636;-63
2022/03/05 03:12:33;;;;;;;17.55;8.52;;;-3.00;45.70;;;;;;5033921;28;46413;-63
2022/03/05 03:14:59;;;;;;;15.60;8.03;;;-3.00;45.60;;;;;;5032878;28;46413;-63
2022/03/05 03:17:25;;;;;;;18.80;8.45;;;-3.00;45.60;;;;;;5033218;28;46590;-63
2022/03/05 03:19:50;;;;;;;19.60;9.60;;;-3.10;45.60;;;;;;5031750;28;46511;-65
2022/03/05 03:22:17;;;;;;;20.93;7.67;;;-3.10;45.60;;;;;;5030559;28;46571;-65
2022/03/05 03:24:43;;;;;;;19.45;8.05;;;-3.10;45.50;;;;;;5030146;28;46395;-63
2022/03/05 03:27:09;;;;;;;21.20;8.77;;;-3.20;45.50;;;;;;5028908;28;46710;-62
2022/03/05 03:29:35;;;;;;;15.57;8.50;;;-3.20;45.60;;;;;;5029416;28;46425;-63
2022/03/05 03:32:00;;;;;;;15.37;8.60;;;-3.20;45.80;;;;;;5029952;28;46390;-64
2022/03/05 03:34:26;;;;;;;18.47;8.83;;;-3.20;45.80;;;;;;5026907;28;47008;-61
2022/03/05 03:36:52;;;;;;;15.50;8.67;;;-3.20;45.90;;;;;;5030064;28;46409;-63
2022/03/05 03:39:18;;;;;;;16.63;9.37;;;-3.30;45.90;;;;;;5031913;28;46620;-63
2022/03/05 03:41:43;;;;;;;21.70;9.13;;;-3.30;46.20;;;;;;5031657;28;46617;-64
2022/03/05 03:44:09;;;;;;;19.30;8.53;;;-3.30;46.40;;;;;;5032133;28;47463;-63
2022/03/05 03:46:35;;;;;;;22.03;8.97;;;-3.30;46.40;;;;;;5030381;28;46412;-64
2022/03/05 03:49:00;;;;;;;18.80;9.20;;;-3.30;46.40;;;;;;5026471;28;46485;-64
2022/03/05 03:51:26;;;;;;;18.10;9.20;;;-3.30;46.40;;;;;;5031762;28;45904;-64
2022/03/05 03:53:51;;;;;;;20.80;9.10;;;-3.30;46.20;;;;;;5031325;28;46418;-63
2022/03/05 03:56:17;;;;;;;17.80;9.07;;;-3.30;46.40;;;;;;5032119;28;46614;-64
2022/03/05 03:58:43;;;;;;;16.27;8.57;;;-3.30;46.60;;;;;;5026475;28;46411;-62
2022/03/05 04:01:08;;;;;;;14.70;8.33;;;-3.30;46.30;;;;;;5026925;28;45834;-63
2022/03/05 04:03:34;;;;;;;16.80;8.73;;;-3.30;46.40;;;;;;5033778;28;46497;-64
2022/03/05 04:05:59;;;;;;;16.27;8.53;;;-3.30;46.40;;;;;;5030679;28;46104;-63
2022/03/05 04:08:43;;;;;;;19.47;8.77;;;-3.30;46.60;;;;;;5025879;28;46277;-63
2022/03/05 04:11:15;;;;;;;15.40;7.72;;;-3.30;46.90;;;;;;5030365;28;46466;-63
2022/03/05 04:13:43;;;;;;;14.90;7.90;;;-3.30;47.20;;;;;;5032654;28;47060;-63
2022/03/05 04:16:09;;;;;;;21.73;8.40;;;-3.30;47.30;;;;;;5029097;28;46365;-63
2022/03/05 04:18:35;;;;;;;20.23;8.87;;;-3.30;47.70;;;;;;5026222;28;46424;-63
2022/03/05 04:21:01;;;;;;;16.53;8.17;;;-3.30;47.80;;;;;;5029207;28;46400;-63
2022/03/05 04:23:27;;;;;;;19.83;8.25;;;-3.30;48.00;;;;;;5038085;28;46936;-63
2022/03/05 04:25:53;;;;;;;14.63;8.30;;;-3.30;48.00;;;;;;5032429;28;46389;-64
2022/03/05 04:28:18;;;;;;;19.67;8.30;;;-3.30;47.80;;;;;;5030964;28;46303;-64
2022/03/05 04:30:44;;;;;;;16.93;7.63;;;-3.30;49.30;;;;;;5030453;28;46368;-63
2022/03/05 04:33:10;;;;;;;21.70;7.77;;;-3.30;48.20;;;;;;5028438;28;46373;-63
2022/03/05 04:35:36;;;;;;;15.10;7.88;;;-3.30;48.20;;;;;;5030156;28;46408;-64
2022/03/05 04:38:03;;;;;;;17.38;8.25;;;-3.30;48.40;;;;;;5028394;28;46408;-63
2022/03/05 04:40:28;;;;;;;18.67;8.23;;;-3.30;48.40;;;;;;5026096;28;46433;-64
2022/03/05 04:42:54;;;;;;;15.43;7.40;;;-3.40;48.30;;;;;;5023648;28;46540;-63
2022/03/05 04:45:20;;;;;;;19.67;8.50;;;-3.40;48.30;;;;;;5022485;28;46398;-63
2022/03/05 04:47:45;;;;;;;19.87;8.30;;;-3.40;48.20;;;;;;5023807;28;46627;-63
2022/03/05 04:50:11;;;;;;;24.37;9.23;;;-3.50;48.20;;;;;;5038153;28;46524;-64
2022/03/05 04:52:38;;;;;;;16.70;8.52;;;-3.60;48.10;;;;;;5033413;28;46374;-63
2022/03/05 04:55:04;;;;;;;20.08;8.43;;;-3.70;48.10;;;;;;5034172;28;45957;-64
2022/03/05 04:57:30;;;;;;;18.67;9.27;;;-3.70;48.10;;;;;;5027615;28;46542;-63
2022/03/05 04:59:55;;;;;;;19.70;8.37;;;-3.80;48.10;;;;;;5031483;28;46652;-63
2022/03/05 05:02:21;;;;;;;16.70;8.00;;;-3.80;48.20;;;;;;5027905;28;46267;-65
2022/03/05 05:04:46;;;;;;;19.97;9.20;;;-3.80;48.40;;;;;;5029696;28;46303;-65
2022/03/05 05:07:12;;;;;;;18.90;8.67;;;-3.80;48.70;;;;;;5032852;28;46414;-64
2022/03/05 05:09:40;;;;;;;17.93;9.23;;;-3.80;48.80;;;;;;5028733;28;46439;-63
2022/03/05 05:12:06;;;;;;;22.35;9.55;;;-3.80;48.90;;;;;;5030746;28;47137;-64
2022/03/05 05:14:32;;;;;;;17.90;9.10;;;-3.80;49.00;;;;;;5031716;28;46403;-64
2022/03/05 05:16:57;;;;;;;21.23;7.93;;;-3.70;48.90;;;;;;5039091;28;46577;-64
2022/03/05 05:19:27;;;;;;;17.40;8.50;;;-3.70;49.10;;;;;;5036622;28;45900;-64
2022/03/05 05:21:56;;;;;;;17.13;8.20;;;-3.70;48.90;;;;;;5036700;28;46713;-64
2022/03/05 05:24:23;;;;;;;20.38;9.02;;;-3.60;49.00;;;;;;5030744;28;46765;-64
2022/03/05 05:26:49;;;;;;;21.83;9.38;;;-3.60;49.60;;;;;;5030453;28;46318;-64
2022/03/05 05:29:14;;;;;;;16.77;8.20;;;-3.60;49.40;;;;;;5038411;28;46435;-63
2022/03/05 05:31:40;;;;;;;20.57;8.70;;;-3.70;49.60;;;;;;5034109;28;47147;-64
2022/03/05 05:34:06;;;;;;;17.50;8.52;;;-3.70;49.90;;;;;;5028980;28;46373;-64
2022/03/05 05:36:32;;;;;;;17.10;8.17;;;-3.70;50.70;;;;;;5033936;28;46325;-63
2022/03/05 05:38:57;;;;;;;24.00;8.30;;;-3.60;50.50;;;;;;5036995;28;46592;-63
2022/03/05 05:41:23;;;;;;;18.10;8.80;;;-3.60;50.90;;;;;;5030745;28;46343;-63
2022/03/05 05:43:49;;;;;;;17.90;8.00;;;-3.60;51.00;;;;;;5031689;28;46370;-63
2022/03/05 05:46:14;;;;;;;19.90;9.57;;;-3.60;51.30;;;;;;5031280;28;46437;-64
2022/03/05 05:48:40;;;;;;;21.80;10.07;;;-3.60;51.10;;;;;;5032142;28;46453;-63
2022/03/05 05:51:06;;;;;;;17.93;8.60;;;-3.60;51.10;;;;;;5031395;28;46379;-63
2022/03/05 05:53:32;;;;;;;18.13;8.93;;;-3.60;51.10;;;;;;5030884;28;45920;-63
2022/03/05 05:55:57;;;;;;;18.40;8.90;;;-3.60;51.70;;;;;;5031104;28;46376;-63
2022/03/05 05:58:23;;;;;;;23.87;8.87;;;-3.60;52.20;;;;;;5033452;28;46307;-64
2022/03/05 06:00:50;;;;;;;17.03;8.40;;;-3.60;52.60;;;;;;5032704;28;47239;-63
2022/03/05 06:03:16;;;;;;;25.55;9.27;;;-3.60;52.40;;;;;;5037101;28;46339;-63
2022/03/05 06:05:42;;;;;;;17.52;8.05;;;-3.50;52.40;;;;;;5034323;28;46322;-63
2022/03/05 06:08:08;;;;;;;17.70;9.90;;;-3.50;51.90;;;;;;5032365;28;46260;-65
2022/03/05 06:10:34;;;;;;;18.50;8.50;;;-3.50;51.80;;;;;;5029200;28;46121;-63
2022/03/05 06:12:59;;;;;;;19.75;8.48;;;-3.50;51.70;;;;;;5028609;28;46642;-64
2022/03/05 06:15:25;;;;;;;20.17;9.57;;;-3.50;51.60;;;;;;5028889;28;45829;-64
2022/03/05 06:17:54;;;;;;;23.35;9.52;;;-3.40;52.00;;;;;;5027232;28;46498;-63
2022/03/05 06:20:20;;;;;;;27.77;11.73;;;-3.30;51.80;;;;;;5030437;28;46209;-63
2022/03/05 06:22:46;;;;;;;21.90;9.30;;;-3.30;51.70;;;;;;5026716;28;46472;-64
2022/03/05 06:25:12;;;;;;;19.40;9.20;;;-3.20;51.50;;;;;;5029831;28;46556;-64
2022/03/05 06:27:37;;;;;;;19.80;9.70;;;-3.20;51.40;;;;;;5030428;28;46385;-63
2022/03/05 06:30:03;;;;;;;18.00;10.00;;;-3.10;51.20;;;;;;5030377;28;46462;-64
2022/03/05 06:32:29;;;;;;;23.73;10.43;;;-3.10;51.00;;;;;;5029125;28;46561;-64
2022/03/05 06:34:55;;;;;;;23.40;11.20;;;-3.00;51.00;;;;;;5029414;28;46538;-63
2022/03/05 06:37:23;;;;;;;20.50;11.23;;;-2.90;51.30;;;;;;5033410;28;46487;-63
2022/03/05 06:39:49;;;;;;;24.70;11.38;;;-2.90;51.30;;;;;;5028389;28;46695;-63
2022/03/05 06:42:15;;;;;;;21.75;10.90;;;-2.80;51.30;;;;;;5029144;28;46093;-63
2022/03/05 06:44:42;;;;;;;25.13;10.90;;;-2.70;51.20;;;;;;5026136;28;46358;-64
2022/03/05 06:47:08;;;;;;;21.52;11.00;;;-2.60;51.10;;;;;;5031672;28;46358;-62
2022/03/05 06:49:34;;;;;;;32.15;13.13;;;-2.50;51.20;;;;;;5029279;28;46833;-62
2022/03/05 06:51:59;;;;;;;23.17;11.60;;;-2.40;51.30;;;;;;5030790;28;47327;-62
2022/03/05 06:54:26;;;;;;;24.47;12.50;;;-2.20;51.80;;;;;;5027263;28;46465;-63
2022/03/05 06:56:51;;;;;;;24.50;12.55;;;-2.10;51.60;;;;;;5026292;28;46748;-63
2022/03/05 06:59:17;;;;;;;32.70;13.53;;;-2.00;52.00;;;;;;5027385;28;46671;-63
2022/03/05 07:01:43;;;;;;;22.77;12.53;;;-1.90;51.70;;;;;;5024715;28;46695;-63
2022/03/05 07:04:08;;;;;;;24.83;10.83;;;-1.80;52.20;;;;;;5027051;28;46512;-62
2022/03/05 07:06:34;;;;;;;24.33;10.40;;;-1.60;52.70;;;;;;5025032;28;46743;-61
2022/03/05 07:09:00;;;;;;;26.90;12.97;;;-1.50;53.60;;;;;;5026286;28;46624;-63
2022/03/05 07:11:26;;;;;;;24.33;11.17;;;-1.40;53.80;;;;;;5030574;28;46448;-62
2022/03/05 07:13:51;;;;;;;22.93;12.37;;;-1.20;53.50;;;;;;5030645;28;46756;-63
2022/03/05 07:16:17;;;;;;;22.60;10.97;;;-1.10;54.00;;;;;;5029920;28;46359;-62
2022/03/05 07:18:42;;;;;;;23.30;12.03;;;-1.10;53.80;;;;;;5027585;28;48000;-65
2022/03/05 07:21:08;;;;;;;25.77;10.73;;;-1.00;54.30;;;;;;5029723;28;46459;-64
2022/03/05 07:23:34;;;;;;;23.47;11.07;;;-0.90;55.00;;;;;;5029398;28;46560;-64
2022/03/05 07:25:59;;;;;;;21.13;11.20;;;-0.80;55.50;;;;;;5028294;28;46433;-65
2022/03/05 07:28:25;;;;;;;23.90;11.33;;;-0.70;55.20;;;;;;5028017;28;46449;-64
2022/03/05 07:30:51;;;;;;;25.33;11.20;;;-0.60;55.00;;;;;;5024989;28;46385;-64
2022/03/05 07:33:17;;;;;;;30.95;12.77;;;-0.50;55.00;;;;;;5026285;28;47145;-63
2022/03/05 07:35:43;;;;;;;26.40;13.20;;;-0.40;54.90;;;;;;5030734;28;46402;-63
2022/03/05 07:38:08;;;;;;;24.43;12.87;;;-0.30;55.10;;;;;;5031550;28;47022;-64
2022/03/05 07:40:34;;;;;;;29.60;13.70;;;-0.20;55.10;;;;;;5028489;28;46503;-63
2022/03/05 07:43:00;;;;;;;28.40;13.00;;;-0.20;55.20;;;;;;5025064;28;46283;-63
2022/03/05 07:45:26;;;;;;;23.20;11.77;;;-0.10;55.10;;;;;;5027704;28;46392;-64
2022/03/05 07:47:51;;;;;;;29.33;12.73;;;0.00;54.80;;;;;;5025641;28;47067;-63
2022/03/05 07:50:17;;;;;;;24.30;12.77;;;0.10;54.70;;;;;;5027711;28;46407;-62
2022/03/05 07:52:43;;;;;;;30.20;12.90;;;0.20;54.80;;;;;;5031109;28;45819;-65
2022/03/05 07:55:09;;;;;;;24.97;12.47;;;0.40;54.60;;;;;;5030062;28;46423;-63
2022/03/05 07:57:34;;;;;;;23.10;11.38;;;0.40;54.50;;;;;;5029426;28;47141;-64
2022/03/05 08:00:00;;;;;;;22.77;11.80;;;0.50;54.40;;;;;;5027968;28;46485;-64
2022/03/05 08:02:26;;;;;;;25.30;12.20;;;0.50;54.50;;;;;;5033658;28;46464;-65
2022/03/05 08:04:51;;;;;;;26.97;13.13;;;0.60;54.50;;;;;;5033590;28;46504;-65
2022/03/05 08:07:17;;;;;;;22.93;11.90;;;0.50;54.60;;;;;;5031928;28;46698;-64
2022/03/05 08:09:43;;;;;;;27.23;13.43;;;0.60;54.50;;;;;;5031530;28;46393;-63
2022/03/05 08:12:10;;;;;;;30.30;14.68;;;0.70;54.70;;;;;;5025990;28;46435;-62
2022/03/05 08:14:39;;;;;;;24.90;12.60;;;0.70;54.60;;;;;;5032394;28;46609;-63
2022/03/05 08:17:05;;;;;;;24.17;11.20;;;0.80;54.40;;;;;;5031042;28;46880;-63
2022/03/05 08:19:30;;;;;;;55.87;21.90;;;0.80;54.40;;;;;;5029838;28;46500;-62
2022/03/05 08:21:56;;;;;;;45.90;18.80;;;0.70;54.50;;;;;;5032269;28;46497;-62
2022/03/05 08:24:21;;;;;;;47.63;19.37;;;0.80;54.40;;;;;;5031955;28;46394;-61
2022/03/05 08:26:47;;;;;;;38.90;19.40;;;0.90;54.30;;;;;;5031865;28;47730;-63
2022/03/05 08:29:13;;;;;;;24.80;13.23;;;0.90;54.20;;;;;;5030820;28;46425;-63
2022/03/05 08:31:39;;;;;;;26.13;13.53;;;1.00;54.00;;;;;;5028313;28;46447;-62
2022/03/05 08:34:04;;;;;;;27.87;13.63;;;1.20;54.00;;;;;;5031116;28;46424;-62
2022/03/05 08:36:30;;;;;;;21.83;11.57;;;1.10;53.60;;;;;;5026827;28;47014;-62
2022/03/05 08:38:56;;;;;;;24.63;12.63;;;1.20;53.50;;;;;;5029521;28;46363;-63
2022/03/05 08:41:22;;;;;;;31.88;13.45;;;1.20;53.80;;;;;;5032459;28;46318;-63
2022/03/05 08:43:49;;;;;;;25.92;13.68;;;1.20;53.80;;;;;;5030827;28;46421;-64
2022/03/05 08:46:15;;;;;;;28.00;13.85;;;1.30;53.70;;;;;;5036265;28;46214;-63
2022/03/05 08:48:40;;;;;;;25.23;13.27;;;1.40;53.60;;;;;;5035965;28;46351;-61
2022/03/05 08:51:06;;;;;;;28.30;13.70;;;1.60;54.40;;;;;;5034360;28;46570;-62
2022/03/05 08:53:32;;;;;;;23.60;11.60;;;1.80;53.10;;;;;;5038417;28;46393;-62
2022/03/05 08:55:57;;;;;;;28.47;13.33;;;1.90;52.40;;;;;;5032246;28;47810;-64
2022/03/05 08:58:23;;;;;;;24.97;12.53;;;1.90;52.20;;;;;;5031920;28;46379;-63
2022/03/05 09:00:50;;;;;;;21.27;12.27;;;1.80;51.80;;;;;;5033271;28;46412;-62
2022/03/05 09:03:16;;;;;;;26.48;12.60;;;1.80;51.90;;;;;;5034331;28;45831;-63
2022/03/05 09:05:42;;;;;;;25.50;13.68;;;1.90;51.70;;;;;;5035847;28;46274;-63
2022/03/05 09:08:08;;;;;;;29.25;14.13;;;1.90;51.50;;;;;;5030152;28;46248;-62
2022/03/05 09:10:34;;;;;;;29.73;14.30;;;2.00;51.40;;;;;;5030614;28;46432;-63
2022/03/05 09:13:00;;;;;;;24.03;13.30;;;2.10;51.00;;;;;;5036985;28;46418;-62
2022/03/05 09:15:26;;;;;;;21.13;11.10;;;2.10;51.00;;;;;;5037432;28;47256;-64
2022/03/05 09:17:51;;;;;;;21.83;11.70;;;2.10;50.50;;;;;;5030357;28;46394;-67
2022/03/05 09:20:17;;;;;;;29.73;13.00;;;2.30;50.30;;;;;;5032462;28;46473;-63
2022/03/05 09:22:43;;;;;;;20.20;12.10;;;2.30;50.10;;;;;;5032140;28;46668;-63
2022/03/05 09:25:09;;;;;;;22.63;12.00;;;2.40;49.80;;;;;;5030081;28;47258;-62
2022/03/05 09:27:35;;;;;;;27.40;12.70;;;2.50;49.60;;;;;;5031246;28;46458;-62
2022/03/05 09:30:02;;;;;;;25.57;13.47;;;2.50;48.40;;;;;;5036642;28;46231;-62
2022/03/05 09:32:28;;;;;;;26.80;12.82;;;2.60;48.50;;;;;;5033541;28;46429;-64
2022/03/05 09:34:54;;;;;;;23.70;11.80;;;2.60;48.40;;;;;;5034713;28;46476;-62
2022/03/05 09:37:20;;;;;;;24.75;12.48;;;2.80;47.90;;;;;;5037265;28;46374;-63
2022/03/05 09:39:47;;;;;;;23.90;12.50;;;3.00;46.60;;;;;;5030620;28;46469;-63
2022/03/05 09:42:12;;;;;;;23.85;12.65;;;3.00;46.60;;;;;;5031594;28;46321;-63
2022/03/05 09:44:38;;;;;;;19.40;11.00;;;3.10;46.60;;;;;;5030758;28;46395;-63
2022/03/05 09:47:06;;;;;;;23.42;12.45;;;3.20;45.50;;;;;;5030238;28;46356;-64
2022/03/05 09:49:36;;;;;;;25.15;11.38;;;3.30;46.00;;;;;;5025894;28;46420;-62
2022/03/05 09:52:02;;;;;;;20.52;11.98;;;3.40;44.90;;;;;;5027214;28;46403;-64
2022/03/05 09:54:28;;;;;;;22.20;10.67;;;3.40;44.60;;;;;;5024220;28;46474;-63
2022/03/05 09:56:54;;;;;;;18.60;10.07;;;3.60;43.50;;;;;;5040485;28;46389;-62
2022/03/05 09:59:21;;;;;;;21.83;10.85;;;3.60;42.60;;;;;;5036246;28;46568;-63
2022/03/05 10:01:47;;;;;;;20.40;9.95;;;3.60;41.70;;;;;;5033035;28;46351;-62
2022/03/05 10:04:21;;;;;;;21.20;10.93;;;3.80;41.60;;;;;;5034208;28;46721;-63
2022/03/05 10:07:07;;;;;;;25.00;13.07;;;3.90;39.20;;;;;;5034259;28;46028;-62
2022/03/05 10:09:33;;;;;;;20.58;10.30;;;4.00;39.00;;;;;;5033341;28;46348;-63
2022/03/05 10:11:59;;;;;;;18.90;8.53;;;4.30;37.90;;;;;;5027595;28;46493;-63
2022/03/05 10:14:25;;;;;;;15.43;9.40;;;4.30;36.90;;;;;;5032558;28;46440;-62
2022/03/05 10:17:00;;;;;;;13.30;7.10;;;4.40;35.50;;;;;;5032248;28;46388;-62
2022/03/05 10:19:26;;;;;;;13.43;8.50;;;4.30;34.50;;;;;;5026984;28;46526;-63
2022/03/05 10:22:08;;;;;;;15.03;8.50;;;4.40;34.60;;;;;;5026391;28;46586;-63
2022/03/05 10:24:38;;;;;;;24.23;8.87;;;4.60;33.80;;;;;;5031886;28;46453;-62
2022/03/05 10:27:06;;;;;;;14.40;8.80;;;4.70;33.30;;;;;;5029815;28;46291;-63
2022/03/05 10:29:35;;;;;;;14.20;8.27;;;4.60;32.80;;;;;;5029845;28;46356;-61
2022/03/05 10:32:09;;;;;;;18.93;9.33;;;4.20;32.30;;;;;;5028749;28;46528;-62
2022/03/05 10:34:53;;;;;;;19.23;8.33;;;4.40;32.80;;;;;;5029143;28;46513;-63
2022/03/05 10:37:21;;;;;;;16.00;9.70;;;4.90;31.60;;;;;;5033075;28;46394;-63
2022/03/05 10:39:47;;;;;;;17.93;9.33;;;5.00;31.60;;;;;;5034022;28;45862;-64
2022/03/05 10:42:17;;;;;;;19.17;8.63;;;5.10;31.30;;;;;;5030132;28;46574;-64
2022/03/05 10:44:42;;;;;;;22.20;10.63;;;5.20;30.20;;;;;;5031182;28;47099;-63
2022/03/05 10:47:08;;;;;;;19.23;9.50;;;5.50;30.50;;;;;;5029958;28;46054;-61
2022/03/05 10:49:39;;;;;;;17.90;9.20;;;5.30;29.10;;;;;;5032137;28;45812;-63
2022/03/05 10:52:09;;;;;;;17.03;9.03;;;5.00;29.10;;;;;;5032679;28;46423;-64
2022/03/05 10:54:39;;;;;;;12.70;7.83;;;4.90;29.50;;;;;;5030169;28;46537;-63
2022/03/05 10:57:18;;;;;;;16.20;9.17;;;4.70;29.70;;;;;;5029941;28;46317;-62
2022/03/05 10:59:47;;;;;;;15.00;8.83;;;4.40;30.00;;;;;;5027239;28;46449;-62
2022/03/05 11:02:14;;;;;;;16.97;7.40;;;4.30;30.50;;;;;;5031524;28;46625;-63
2022/03/05 11:04:43;;;;;;;15.80;8.87;;;4.30;30.20;;;;;;5033874;28;46519;-63
2022/03/05 11:07:09;;;;;;;15.40;8.15;;;4.10;30.00;;;;;;5028826;28;46442;-61
2022/03/05 11:09:36;;;;;;;17.13;9.23;;;4.00;30.50;;;;;;5033147;28;46421;-64
2022/03/05 11:12:03;;;;;;;15.00;8.53;;;3.90;30.50;;;;;;5033535;28;46404;-61
2022/03/05 11:14:29;;;;;;;15.70;8.70;;;4.10;30.60;;;;;;5032534;28;46313;-63
2022/03/05 11:16:56;;;;;;;18.13;7.60;;;4.30;30.20;;;;;;5031997;28;46437;-63
2022/03/05 11:19:23;;;;;;;16.88;8.65;;;4.60;29.40;;;;;;5029121;28;46369;-63
2022/03/05 11:21:49;;;;;;;13.53;7.40;;;4.70;29.40;;;;;;5028459;28;45962;-64
2022/03/05 11:24:16;;;;;;;14.90;8.60;;;4.90;28.90;;;;;;5029042;28;46434;-63
2022/03/05 11:26:42;;;;;;;16.50;8.70;;;5.20;28.20;;;;;;5028067;28;46338;-63
2022/03/05 11:29:07;;;;;;;13.23;7.47;;;5.50;27.90;;;;;;5031558;28;46422;-63
2022/03/05 11:31:35;;;;;;;15.77;7.70;;;5.60;26.60;;;;;;5033061;28;46739;-63
2022/03/05 11:34:41;;;;;;;17.70;8.53;;;5.90;26.60;;;;;;5045694;28;46652;-65
2022/03/05 11:37:16;;;;;;;15.15;8.73;;;6.10;25.60;;;;;;5026808;28;46283;-62
2022/03/05 11:39:41;;;;;;;20.80;8.70;;;6.00;26.10;;;;;;5032598;28;46413;-62
2022/03/05 11:42:09;;;;;;;12.90;7.40;;;5.90;26.50;;;;;;5029461;28;46237;-63
2022/03/05 11:44:43;;;;;;;11.13;7.07;;;5.50;26.40;;;;;;5026861;28;46379;-62
2022/03/05 11:47:18;;;;;;;15.50;7.57;;;5.20;26.60;;;;;;5033950;28;46367;-63
2022/03/05 11:49:58;;;;;;;13.57;7.10;;;4.80;26.60;;;;;;5031556;28;46459;-64
2022/03/05 11:52:39;;;;;;;16.30;8.43;;;4.70;27.20;;;;;;5030449;28;46355;-64
2022/03/05 11:55:11;;;;;;;13.10;7.57;;;4.70;26.70;;;;;;5030384;28;46038;-64
2022/03/05 11:58:06;;;;;;;12.87;7.53;;;4.90;26.60;;;;;;5028223;28;46322;-64
2022/03/05 12:00:33;;;;;;;13.00;7.77;;;4.80;26.60;;;;;;5014615;28;46445;-63
2022/03/05 12:03:00;;;;;;;14.33;7.20;;;4.90;26.90;;;;;;5027295;28;46642;-63
2022/03/05 12:05:38;;;;;;;12.33;6.60;;;5.20;26.90;;;;;;5028977;28;47116;-64
2022/03/05 12:08:11;;;;;;;11.63;6.23;;;5.20;26.20;;;;;;5032120;28;46504;-63
2022/03/05 12:10:38;;;;;;;11.13;5.87;;;5.20;25.50;;;;;;5030495;28;46478;-62
2022/03/05 12:13:09;;;;;;;10.77;5.67;;;5.20;25.60;;;;;;5023591;28;46353;-63
2022/03/05 12:15:42;;;;;;;14.70;6.63;;;5.30;25.40;;;;;;5033339;28;46319;-63
2022/03/05 12:18:12;;;;;;;13.87;7.03;;;5.30;25.10;;;;;;5037804;28;46343;-63
2022/03/05 12:20:39;;;;;;;14.03;6.70;;;5.40;25.00;;;;;;5037474;28;46149;-63
2022/03/05 12:23:19;;;;;;;15.53;6.83;;;5.30;25.00;;;;;;5038219;28;46381;-63
2022/03/05 12:25:47;;;;;;;10.73;6.20;;;5.00;24.70;;;;;;5031533;28;47977;-64
2022/03/05 12:28:18;;;;;;;12.10;6.20;;;5.10;25.00;;;;;;5032524;28;46422;-63
2022/03/05 12:30:45;;;;;;;11.37;6.53;;;5.00;24.70;;;;;;5031793;28;46478;-63
2022/03/05 12:33:15;;;;;;;11.33;6.03;;;5.00;25.00;;;;;;5029004;28;46378;-64
2022/03/05 12:35:44;;;;;;;11.40;6.43;;;4.90;24.50;;;;;;5031363;28;46328;-62